Time;durP1;ratioP1;P1;durP2;ratioP2;P2;SDS_P1;SDS_P2;PMS_P1;PMS_P2;Temp;Humidity;BMP_temperature;BMP_pressure;BME280_temperature;BME280_humidity;BME280_pressure;Samples;Min_cycle;Max_cycle;Signal;HPM_P1;HPM_P2
2023/12/16 00:00:34;;;;;;;9.82;7.00;;;17.60;99.90;;;;;;4595040;19;20292;-74
2023/12/16 00:02:28;;;;;;;9.32;7.63;;;17.60;99.90;;;;;;4594603;19;20461;-74
2023/12/16 00:04:02;;;;;;;9.63;7.40;;;17.60;99.90;;;;;;4594602;19;20027;-74
2023/12/16 00:05:37;;;;;;;9.95;7.10;;;17.50;99.90;;;;;;4591753;19;20029;-74
2023/12/16 00:07:11;;;;;;;9.50;6.85;;;17.50;99.90;;;;;;4594696;19;20006;-74
2023/12/16 00:08:45;;;;;;;10.40;6.80;;;17.50;99.90;;;;;;4594596;19;20003;-74
2023/12/16 00:10:21;;;;;;;11.27;7.32;;;17.50;99.90;;;;;;4594423;19;20011;-74
2023/12/16 00:11:55;;;;;;;11.10;7.28;;;17.50;99.90;;;;;;4594476;19;20018;-74
2023/12/16 00:13:29;;;;;;;10.05;7.22;;;17.50;99.90;;;;;;4594721;19;20316;-74
2023/12/16 00:15:09;;;;;;;9.18;6.45;;;17.50;99.90;;;;;;4594552;19;20014;-74
2023/12/16 00:16:46;;;;;;;8.48;6.55;;;17.40;99.90;;;;;;4594387;19;20014;-74
2023/12/16 00:18:20;;;;;;;8.80;6.60;;;17.50;99.90;;;;;;4593337;19;20006;-74
2023/12/16 00:19:55;;;;;;;8.93;6.65;;;17.40;99.90;;;;;;4594098;19;20320;-74
2023/12/16 00:21:29;;;;;;;9.32;6.85;;;17.40;99.90;;;;;;4594314;19;20013;-74
2023/12/16 00:23:02;;;;;;;8.90;6.70;;;17.40;99.90;;;;;;4594537;19;20023;-74
2023/12/16 00:24:42;;;;;;;9.10;6.72;;;17.40;99.90;;;;;;4594302;19;20070;-74
2023/12/16 00:26:18;;;;;;;9.10;7.10;;;17.40;99.90;;;;;;4593345;19;19995;-74
2023/12/16 00:27:52;;;;;;;9.27;6.47;;;17.30;99.90;;;;;;4593207;19;19994;-74
2023/12/16 00:29:27;;;;;;;9.60;6.47;;;17.30;99.90;;;;;;4594309;19;20023;-74
2023/12/16 00:31:01;;;;;;;8.75;7.05;;;17.30;99.90;;;;;;4593143;19;19994;-74
2023/12/16 00:32:39;;;;;;;9.65;6.88;;;17.30;99.90;;;;;;4594377;19;20015;-74
2023/12/16 00:34:14;;;;;;;7.75;5.90;;;17.30;99.90;;;;;;4594421;19;20010;-74
2023/12/16 00:35:48;;;;;;;10.45;6.97;;;17.30;99.90;;;;;;4593275;19;20048;-74
2023/12/16 00:37:22;;;;;;;10.35;7.53;;;17.30;99.90;;;;;;4594077;19;19998;-74
2023/12/16 00:38:58;;;;;;;8.00;6.63;;;17.30;99.90;;;;;;4594307;19;20302;-74
2023/12/16 00:40:32;;;;;;;9.73;7.00;;;17.30;99.90;;;;;;4592604;19;20027;-74
2023/12/16 00:42:07;;;;;;;9.48;6.80;;;17.30;99.90;;;;;;4593799;19;20009;-74
2023/12/16 00:43:42;;;;;;;8.95;6.85;;;17.30;99.90;;;;;;4593960;19;20073;-74
2023/12/16 00:45:16;;;;;;;9.88;7.03;;;17.20;99.90;;;;;;4593802;19;20003;-74
2023/12/16 00:46:50;;;;;;;9.70;6.85;;;17.20;99.90;;;;;;4593750;19;20013;-74
2023/12/16 00:48:25;;;;;;;10.10;6.80;;;17.20;99.90;;;;;;4593800;19;20423;-74
2023/12/16 00:49:59;;;;;;;8.50;6.22;;;17.20;99.90;;;;;;4593760;19;20363;-74
2023/12/16 00:51:33;;;;;;;9.60;6.38;;;17.20;99.90;;;;;;4593631;19;20031;-74
2023/12/16 00:53:08;;;;;;;9.00;6.97;;;17.20;99.90;;;;;;4594463;19;20003;-74
2023/12/16 00:54:42;;;;;;;9.55;6.63;;;17.20;99.90;;;;;;4593920;19;20307;-74
2023/12/16 00:56:17;;;;;;;9.00;6.72;;;17.20;99.90;;;;;;4592473;19;20034;-74
2023/12/16 00:57:52;;;;;;;8.35;6.88;;;17.20;99.90;;;;;;4593642;19;20007;-74
2023/12/16 00:59:26;;;;;;;8.40;6.35;;;17.10;99.90;;;;;;4592207;19;20360;-74
2023/12/16 01:16:41;;;;;;;8.77;6.38;;;17.00;99.90;;;;;;4559561;19;20025;-75
2023/12/16 01:18:17;;;;;;;8.00;6.07;;;17.00;99.90;;;;;;4591782;19;20006;-75
2023/12/16 01:19:51;;;;;;;9.20;6.00;;;17.00;99.90;;;;;;4592809;19;19994;-75
2023/12/16 01:21:25;;;;;;;6.82;5.63;;;17.00;99.90;;;;;;4593371;19;20441;-74
2023/12/16 01:23:00;;;;;;;8.75;6.20;;;17.00;99.90;;;;;;4593171;19;20436;-75
2023/12/16 01:24:36;;;;;;;8.02;5.88;;;17.00;99.90;;;;;;4593089;19;20015;-75
2023/12/16 01:26:13;;;;;;;8.23;6.22;;;16.90;99.90;;;;;;4591665;19;20086;-75
2023/12/16 01:27:49;;;;;;;8.80;6.22;;;17.00;99.90;;;;;;4593117;19;20418;-75
2023/12/16 01:29:23;;;;;;;7.93;5.43;;;17.00;99.90;;;;;;4592940;19;20429;-75
2023/12/16 01:30:58;;;;;;;7.68;5.88;;;17.00;99.90;;;;;;4592132;19;20003;-75
2023/12/16 01:32:35;;;;;;;9.30;6.68;;;16.90;99.90;;;;;;4593213;19;20434;-75
2023/12/16 01:34:09;;;;;;;7.90;6.00;;;16.90;99.90;;;;;;4592844;19;20005;-75
2023/12/16 01:35:43;;;;;;;9.18;6.78;;;16.90;99.90;;;;;;4592818;19;20013;-75
2023/12/16 01:37:19;;;;;;;8.13;6.28;;;16.90;99.90;;;;;;4590661;19;20006;-75
2023/12/16 01:38:54;;;;;;;9.10;6.30;;;16.90;99.90;;;;;;4592480;19;20006;-75
2023/12/16 01:40:28;;;;;;;9.55;6.50;;;16.90;99.90;;;;;;4592724;19;19998;-74
2023/12/16 01:42:04;;;;;;;9.98;7.30;;;16.90;99.90;;;;;;4592752;19;20006;-75
2023/12/16 01:43:38;;;;;;;9.95;6.80;;;16.90;99.90;;;;;;4592889;19;20302;-74
2023/12/16 01:45:13;;;;;;;9.32;6.22;;;16.90;99.90;;;;;;4592551;19;20034;-75
2023/12/16 01:46:51;;;;;;;8.75;6.13;;;16.90;99.90;;;;;;4592083;19;20010;-75
2023/12/16 01:48:24;;;;;;;8.15;5.82;;;16.90;99.90;;;;;;4591261;19;19998;-75
2023/12/16 01:49:59;;;;;;;8.00;5.95;;;16.90;99.90;;;;;;4591154;19;19998;-75
2023/12/16 01:51:35;;;;;;;7.82;5.93;;;16.80;99.90;;;;;;4591328;19;20019;-75
2023/12/16 01:53:09;;;;;;;8.30;5.85;;;16.80;99.90;;;;;;4591100;19;20006;-75
2023/12/16 01:54:43;;;;;;;8.50;6.57;;;16.80;99.90;;;;;;4591128;19;20035;-75
2023/12/16 01:56:18;;;;;;;8.73;5.78;;;16.90;99.90;;;;;;4591998;19;20007;-74
2023/12/16 01:57:52;;;;;;;7.10;5.90;;;16.80;99.90;;;;;;4592417;19;20005;-75
2023/12/16 01:59:26;;;;;;;8.40;5.88;;;16.90;99.90;;;;;;4592342;19;20007;-74
2023/12/16 02:01:03;;;;;;;8.50;6.25;;;16.80;99.90;;;;;;4592440;19;20013;-74
2023/12/16 02:02:37;;;;;;;8.18;5.60;;;16.80;99.90;;;;;;4590972;19;20332;-74
2023/12/16 02:04:11;;;;;;;9.13;6.00;;;16.80;99.90;;;;;;4591947;19;20076;-75
2023/12/16 02:05:47;;;;;;;8.85;5.65;;;16.80;99.90;;;;;;4592289;19;20010;-74
2023/12/16 02:07:21;;;;;;;8.93;5.93;;;16.80;99.90;;;;;;4591325;19;20311;-75
2023/12/16 02:08:55;;;;;;;7.07;5.22;;;16.80;99.90;;;;;;4592195;19;20011;-75
2023/12/16 02:10:31;;;;;;;7.85;5.45;;;16.80;99.90;;;;;;4590541;19;20013;-74
2023/12/16 02:12:07;;;;;;;8.20;5.93;;;16.80;99.90;;;;;;4591853;19;19998;-75
2023/12/16 02:13:42;;;;;;;8.07;6.00;;;16.80;99.90;;;;;;4592410;19;20304;-74
2023/12/16 02:15:17;;;;;;;10.65;5.85;;;16.80;99.90;;;;;;4592297;19;20006;-74
2023/12/16 02:16:53;;;;;;;8.57;5.72;;;16.70;99.90;;;;;;4591239;19;20014;-74
2023/12/16 02:18:27;;;;;;;8.35;5.80;;;16.80;99.90;;;;;;4592181;19;19998;-75
2023/12/16 02:20:03;;;;;;;11.15;6.03;;;16.80;99.90;;;;;;4592375;19;20040;-75
2023/12/16 02:21:37;;;;;;;7.32;5.40;;;16.80;99.90;;;;;;4592322;19;20008;-73
2023/12/16 02:23:19;;;;;;;8.48;5.47;;;16.80;99.90;;;;;;4592010;19;20064;-77
2023/12/16 02:24:54;;;;;;;8.38;5.38;;;16.80;99.90;;;;;;4592093;19;20005;-74
2023/12/16 02:26:28;;;;;;;8.43;5.55;;;16.90;99.90;;;;;;4590046;19;20006;-75
2023/12/16 02:28:02;;;;;;;11.40;5.75;;;16.90;99.90;;;;;;4591568;19;19999;-74
2023/12/16 02:29:38;;;;;;;6.70;4.88;;;16.90;99.90;;;;;;4596465;19;20006;-74
2023/12/16 02:31:11;;;;;;;7.20;5.05;;;17.00;99.90;;;;;;4595482;19;20411;-75
2023/12/16 02:32:47;;;;;;;7.53;4.88;;;17.10;99.90;;;;;;4596957;19;20474;-74
2023/12/16 02:34:23;;;;;;;6.93;5.13;;;17.20;99.90;;;;;;4596976;19;20002;-75
2023/12/16 02:36:00;;;;;;;6.72;5.07;;;17.30;99.90;;;;;;4596605;19;20005;-75
2023/12/16 02:37:33;;;;;;;6.50;4.78;;;17.40;99.90;;;;;;4594843;19;20073;-75
2023/12/16 02:39:09;;;;;;;6.55;4.63;;;17.50;99.90;;;;;;4596617;19;20006;-75
2023/12/16 02:40:43;;;;;;;7.15;5.03;;;17.60;99.90;;;;;;4595439;19;19994;-75
2023/12/16 02:42:18;;;;;;;6.53;4.72;;;17.70;99.90;;;;;;4596066;19;19994;-76
2023/12/16 02:43:53;;;;;;;6.10;4.38;;;17.70;99.90;;;;;;4596517;19;20026;-75
2023/12/16 02:45:28;;;;;;;6.15;4.20;;;17.80;99.90;;;;;;4596368;19;20032;-75
2023/12/16 02:47:02;;;;;;;7.15;5.20;;;17.80;99.90;;;;;;4595246;19;20002;-75
2023/12/16 02:48:38;;;;;;;5.80;4.20;;;17.90;99.90;;;;;;4597057;19;20444;-75
2023/12/16 02:50:12;;;;;;;6.15;4.53;;;17.90;99.90;;;;;;4596063;19;20053;-75
2023/12/16 02:51:47;;;;;;;8.32;4.97;;;17.90;99.90;;;;;;4596515;19;19999;-75
2023/12/16 02:53:22;;;;;;;6.15;4.78;;;18.00;99.90;;;;;;4596305;19;20062;-75
2023/12/16 02:54:56;;;;;;;5.93;4.85;;;18.00;99.90;;;;;;4596215;19;19994;-75
2023/12/16 02:56:30;;;;;;;6.13;4.30;;;18.00;99.90;;;;;;4595657;19;19998;-75
2023/12/16 02:58:06;;;;;;;5.75;4.70;;;18.00;99.90;;;;;;4596923;19;20410;-75
2023/12/16 02:59:40;;;;;;;5.30;4.35;;;18.00;99.90;;;;;;4596023;19;19999;-75
2023/12/16 03:01:15;;;;;;;6.25;4.82;;;18.10;99.90;;;;;;4596006;19;20462;-75
2023/12/16 03:02:51;;;;;;;6.35;4.93;;;18.10;99.90;;;;;;4596113;19;20018;-75
2023/12/16 03:04:25;;;;;;;5.43;4.22;;;18.10;99.90;;;;;;4596049;19;20022;-75
2023/12/16 03:06:05;;;;;;;5.80;4.28;;;18.10;99.90;;;;;;4595960;19;19998;-75
2023/12/16 03:07:41;;;;;;;5.60;4.13;;;18.20;99.90;;;;;;4594277;19;20006;-73
2023/12/16 03:09:16;;;;;;;6.00;4.25;;;18.10;99.90;;;;;;4595879;19;20005;-74
2023/12/16 03:10:50;;;;;;;5.72;4.10;;;18.20;99.90;;;;;;4595242;19;19999;-74
2023/12/16 03:12:25;;;;;;;7.05;4.18;;;18.20;99.90;;;;;;4594611;19;20006;-74
2023/12/16 03:14:01;;;;;;;5.93;4.30;;;18.40;99.90;;;;;;4594489;19;20003;-75
2023/12/16 03:15:35;;;;;;;5.45;4.00;;;18.50;99.90;;;;;;4595465;19;19994;-75
2023/12/16 03:17:12;;;;;;;5.38;3.70;;;18.70;99.90;;;;;;4594282;19;20433;-75
2023/12/16 03:18:47;;;;;;;5.97;3.83;;;18.80;99.90;;;;;;4594378;19;20048;-74
2023/12/16 03:20:21;;;;;;;6.15;3.85;;;18.80;99.90;;;;;;4595604;19;20019;-74
2023/12/16 03:21:57;;;;;;;5.85;4.47;;;18.90;99.90;;;;;;4595636;19;20017;-74
2023/12/16 03:23:31;;;;;;;6.18;3.88;;;18.90;99.90;;;;;;4595550;19;20003;-74
2023/12/16 03:25:05;;;;;;;6.65;4.00;;;18.90;99.90;;;;;;4595530;19;20581;-75
2023/12/16 03:26:41;;;;;;;5.78;4.57;;;18.90;99.90;;;;;;4594992;19;20014;-74
2023/12/16 03:28:15;;;;;;;5.18;3.90;;;18.90;99.90;;;;;;4595685;19;19999;-74
2023/12/16 03:29:49;;;;;;;5.60;4.25;;;18.90;99.90;;;;;;4595477;19;19998;-74
2023/12/16 03:31:25;;;;;;;6.80;4.03;;;18.90;99.90;;;;;;4593991;19;20034;-74
2023/12/16 03:33:00;;;;;;;7.00;4.65;;;18.90;99.90;;;;;;4595377;19;20003;-74
2023/12/16 03:34:35;;;;;;;5.38;4.30;;;18.80;99.90;;;;;;4595627;19;20073;-74
2023/12/16 03:36:10;;;;;;;5.60;4.45;;;18.80;99.90;;;;;;4595416;19;20007;-74
2023/12/16 03:37:44;;;;;;;4.93;4.22;;;18.80;99.90;;;;;;4595277;19;20003;-74
2023/12/16 03:39:19;;;;;;;5.88;3.80;;;18.70;99.90;;;;;;4595204;19;19998;-74
2023/12/16 03:40:57;;;;;;;6.28;4.15;;;18.70;99.90;;;;;;4595312;19;20002;-74
2023/12/16 03:42:33;;;;;;;5.78;3.83;;;18.70;99.90;;;;;;4595213;19;20002;-74
2023/12/16 03:44:07;;;;;;;5.65;4.25;;;18.60;99.90;;;;;;4595466;19;20030;-75
2023/12/16 03:45:43;;;;;;;6.47;4.22;;;18.60;99.90;;;;;;4595460;19;20066;-74
2023/12/16 03:47:16;;;;;;;5.88;4.18;;;18.60;99.90;;;;;;4593829;19;20078;-74
2023/12/16 03:48:51;;;;;;;6.50;4.03;;;18.60;99.90;;;;;;4595056;19;20002;-74
2023/12/16 03:50:27;;;;;;;5.55;3.95;;;18.60;99.90;;;;;;4594754;19;20007;-74
2023/12/16 03:52:00;;;;;;;4.93;3.83;;;18.60;99.90;;;;;;4595049;19;20005;-74
2023/12/16 03:53:34;;;;;;;5.88;3.90;;;18.60;99.90;;;;;;4594977;19;20006;-74
2023/12/16 03:55:10;;;;;;;5.68;3.88;;;18.70;99.90;;;;;;4595047;19;20006;-74
2023/12/16 03:56:45;;;;;;;6.55;3.83;;;18.70;99.90;;;;;;4594512;19;20003;-74
2023/12/16 03:58:19;;;;;;;6.82;4.72;;;18.70;99.90;;;;;;4595112;19;20078;-74
2023/12/16 03:59:56;;;;;;;5.57;3.90;;;18.70;99.90;;;;;;4594942;19;20535;-74
2023/12/16 04:01:30;;;;;;;5.90;3.72;;;18.70;99.90;;;;;;4595098;19;20030;-74
2023/12/16 04:03:04;;;;;;;4.80;3.53;;;18.70;99.90;;;;;;4595078;19;20357;-74
2023/12/16 04:04:41;;;;;;;5.60;4.32;;;18.70;99.90;;;;;;4595135;19;20010;-74
2023/12/16 04:06:15;;;;;;;8.95;4.28;;;18.70;99.90;;;;;;4594609;19;20003;-74
2023/12/16 04:07:51;;;;;;;4.80;3.40;;;18.70;99.90;;;;;;4594758;19;20010;-74
2023/12/16 04:09:28;;;;;;;5.57;4.10;;;18.60;99.90;;;;;;4594716;19;20425;-74
2023/12/16 04:11:04;;;;;;;6.22;3.83;;;18.70;99.90;;;;;;4592435;19;20330;-74
2023/12/16 04:12:38;;;;;;;5.18;4.05;;;18.60;99.90;;;;;;4594254;19;20006;-74
2023/12/16 04:14:13;;;;;;;5.03;3.67;;;18.60;99.90;;;;;;4595421;19;20065;-74
2023/12/16 04:15:52;;;;;;;4.93;3.92;;;18.60;99.90;;;;;;4594551;19;20002;-74
2023/12/16 04:17:28;;;;;;;4.45;3.50;;;18.50;99.90;;;;;;4591595;19;20015;-74
2023/12/16 04:19:05;;;;;;;5.47;3.58;;;18.50;99.90;;;;;;4594285;19;20019;-74
2023/12/16 04:20:39;;;;;;;6.22;4.13;;;18.50;99.90;;;;;;4593181;19;20013;-74
2023/12/16 04:22:13;;;;;;;5.47;3.35;;;18.40;99.90;;;;;;4594071;19;19998;-74
2023/12/16 04:23:48;;;;;;;5.32;3.78;;;18.40;99.90;;;;;;4594483;19;20006;-74
2023/12/16 04:25:23;;;;;;;7.07;3.85;;;18.40;99.90;;;;;;4594568;19;20365;-74
2023/12/16 04:26:58;;;;;;;6.80;3.80;;;18.40;99.90;;;;;;4593554;19;20036;-74
2023/12/16 04:28:34;;;;;;;6.22;4.13;;;18.40;99.90;;;;;;4594290;19;20003;-74
2023/12/16 04:30:09;;;;;;;5.25;4.13;;;18.40;99.90;;;;;;4594539;19;20070;-74
2023/12/16 04:31:43;;;;;;;6.32;3.30;;;18.50;99.90;;;;;;4594470;19;20002;-74
2023/12/16 04:33:19;;;;;;;5.38;3.38;;;18.50;99.90;;;;;;4594298;19;20022;-75
2023/12/16 04:34:53;;;;;;;4.88;3.30;;;18.50;99.90;;;;;;4594176;19;20002;-74
2023/12/16 04:36:26;;;;;;;4.68;3.08;;;18.70;99.90;;;;;;4593721;19;20339;-75
2023/12/16 04:38:02;;;;;;;6.07;3.40;;;18.70;99.90;;;;;;4594136;19;20002;-76
2023/12/16 04:39:39;;;;;;;6.53;3.67;;;18.80;99.90;;;;;;4594303;19;20302;-76
2023/12/16 04:41:14;;;;;;;5.78;3.42;;;18.90;99.90;;;;;;4594265;19;20034;-76
2023/12/16 04:42:50;;;;;;;5.25;3.30;;;18.90;99.90;;;;;;4592680;19;20045;-76
2023/12/16 04:44:25;;;;;;;4.10;2.92;;;19.00;99.90;;;;;;4593617;19;20443;-76
2023/12/16 04:46:02;;;;;;;5.55;3.58;;;19.00;99.90;;;;;;4592591;19;20015;-76
2023/12/16 04:47:37;;;;;;;4.53;3.00;;;19.00;99.90;;;;;;4592302;19;20015;-77
2023/12/16 04:49:13;;;;;;;4.30;3.08;;;19.10;99.90;;;;;;4593928;19;19998;-76
2023/12/16 04:50:47;;;;;;;4.60;2.90;;;19.10;99.90;;;;;;4593202;19;20005;-76
2023/12/16 04:52:22;;;;;;;5.20;3.10;;;19.10;99.90;;;;;;4591850;19;20019;-76
2023/12/16 04:53:56;;;;;;;4.15;3.00;;;19.10;99.90;;;;;;4593446;19;19999;-76
2023/12/16 04:55:31;;;;;;;4.13;3.00;;;19.10;99.90;;;;;;4593779;19;19994;-77
2023/12/16 04:57:07;;;;;;;4.78;3.28;;;19.20;99.90;;;;;;4592887;19;20023;-76
2023/12/16 04:58:41;;;;;;;3.75;2.83;;;19.20;99.90;;;;;;4593704;19;20009;-76
2023/12/16 05:00:15;;;;;;;4.15;2.95;;;19.20;99.90;;;;;;4593638;19;20002;-76
2023/12/16 05:01:51;;;;;;;4.05;2.88;;;19.10;99.90;;;;;;4593979;19;20002;-76
2023/12/16 05:03:27;;;;;;;3.90;2.90;;;19.10;99.90;;;;;;4593634;19;19998;-76
2023/12/16 05:05:02;;;;;;;5.10;2.85;;;19.10;99.90;;;;;;4593495;19;20030;-76
2023/12/16 05:06:38;;;;;;;4.53;3.13;;;19.20;99.90;;;;;;4593095;19;20022;-76
2023/12/16 05:08:14;;;;;;;4.43;2.97;;;19.20;99.90;;;;;;4593527;19;20328;-76
2023/12/16 05:09:49;;;;;;;4.70;3.38;;;19.10;99.90;;;;;;4593548;19;20028;-76
2023/12/16 05:11:25;;;;;;;4.85;3.20;;;19.10;99.90;;;;;;4593141;19;20006;-76
2023/12/16 05:13:00;;;;;;;5.47;3.22;;;19.10;99.90;;;;;;4593656;19;20061;-76
2023/12/16 05:14:34;;;;;;;4.13;2.72;;;19.10;99.90;;;;;;4592034;19;19999;-76
2023/12/16 05:16:10;;;;;;;3.97;2.75;;;19.10;99.90;;;;;;4593031;19;20351;-76
2023/12/16 05:17:44;;;;;;;5.45;2.90;;;19.10;99.90;;;;;;4592187;19;20019;-75
2023/12/16 05:19:18;;;;;;;3.60;2.70;;;19.10;99.90;;;;;;4593215;19;20324;-76
2023/12/16 05:20:53;;;;;;;4.53;2.88;;;19.10;99.90;;;;;;4593704;19;20005;-76
2023/12/16 05:22:27;;;;;;;4.88;3.05;;;19.10;99.90;;;;;;4593186;19;20009;-76
2023/12/16 05:24:02;;;;;;;5.25;3.03;;;19.10;99.90;;;;;;4593219;19;20001;-74
2023/12/16 05:25:39;;;;;;;4.72;2.97;;;19.10;99.90;;;;;;4593467;19;20294;-74
2023/12/16 05:27:14;;;;;;;5.15;2.90;;;19.10;99.90;;;;;;4592294;19;20005;-76
2023/12/16 05:28:48;;;;;;;4.40;3.10;;;19.10;99.90;;;;;;4593000;19;20002;-75
2023/12/16 05:30:24;;;;;;;4.43;2.85;;;19.10;99.90;;;;;;4593626;19;20006;-76
2023/12/16 05:31:58;;;;;;;5.10;3.35;;;19.10;99.90;;;;;;4593102;19;20006;-76
2023/12/16 05:33:32;;;;;;;4.78;3.38;;;19.00;99.90;;;;;;4592936;19;19998;-76
2023/12/16 05:35:09;;;;;;;4.28;2.92;;;19.00;99.90;;;;;;4592999;19;20007;-76
2023/12/16 05:36:43;;;;;;;4.45;3.13;;;19.00;99.90;;;;;;4592353;19;20007;-76
2023/12/16 05:38:18;;;;;;;4.65;3.17;;;19.00;99.90;;;;;;4592869;19;20489;-76
2023/12/16 05:39:54;;;;;;;4.13;2.53;;;19.00;99.90;;;;;;4593142;19;20011;-76
2023/12/16 05:41:28;;;;;;;4.32;3.00;;;19.00;99.90;;;;;;4593035;19;20005;-74
2023/12/16 05:43:04;;;;;;;4.75;2.80;;;19.00;99.90;;;;;;4592760;19;19999;-76
2023/12/16 05:44:39;;;;;;;4.10;2.97;;;19.00;99.90;;;;;;4593097;19;20307;-76
2023/12/16 05:46:14;;;;;;;5.53;3.20;;;19.00;99.90;;;;;;4592565;19;20002;-74
2023/12/16 05:47:49;;;;;;;4.22;3.05;;;19.00;99.90;;;;;;4592928;19;20009;-75
2023/12/16 05:49:25;;;;;;;7.13;3.50;;;19.00;99.90;;;;;;4592776;19;20006;-74
2023/12/16 05:51:00;;;;;;;7.30;4.00;;;18.90;99.90;;;;;;4592017;19;20002;-75
2023/12/16 05:52:34;;;;;;;5.30;3.13;;;18.90;99.90;;;;;;4592523;19;20438;-75
2023/12/16 05:54:09;;;;;;;6.00;3.03;;;18.80;99.90;;;;;;4591333;19;20002;-75
2023/12/16 05:55:47;;;;;;;5.18;3.45;;;18.80;99.90;;;;;;4592183;19;20434;-75
2023/12/16 05:57:21;;;;;;;6.05;3.15;;;18.80;99.90;;;;;;4591679;19;20003;-75
2023/12/16 05:58:57;;;;;;;6.20;3.40;;;18.80;99.90;;;;;;4592524;19;20010;-75
2023/12/16 06:00:32;;;;;;;4.90;3.30;;;18.80;99.90;;;;;;4592378;19;20009;-75
2023/12/16 06:02:07;;;;;;;4.63;3.00;;;18.70;99.90;;;;;;4592431;19;19999;-75
2023/12/16 06:03:43;;;;;;;5.00;3.50;;;18.70;99.90;;;;;;4590131;19;20002;-75
2023/12/16 06:05:17;;;;;;;3.90;2.83;;;18.70;99.90;;;;;;4591296;19;20083;-75
2023/12/16 06:06:51;;;;;;;4.03;3.22;;;18.70;99.90;;;;;;4591351;19;20002;-75
2023/12/16 06:08:27;;;;;;;4.20;3.10;;;18.70;99.90;;;;;;4592562;19;20082;-75
2023/12/16 06:10:01;;;;;;;4.25;3.17;;;18.60;99.90;;;;;;4592246;19;20002;-75
2023/12/16 06:11:36;;;;;;;6.60;3.03;;;18.60;99.90;;;;;;4591179;19;20010;-75
2023/12/16 06:13:11;;;;;;;4.97;3.47;;;18.60;99.90;;;;;;4592276;19;20006;-75
2023/12/16 06:14:46;;;;;;;5.13;3.50;;;18.50;99.90;;;;;;4592218;19;20205;-75
2023/12/16 06:16:21;;;;;;;6.88;3.50;;;18.50;99.90;;;;;;4592086;19;20079;-75
2023/12/16 06:17:59;;;;;;;5.10;3.33;;;18.50;99.90;;;;;;4592221;19;20009;-73
2023/12/16 06:19:36;;;;;;;5.95;3.42;;;18.40;99.90;;;;;;4591099;19;20013;-73
2023/12/16 06:21:10;;;;;;;4.53;3.20;;;18.50;99.90;;;;;;4591723;19;20002;-73
2023/12/16 06:22:46;;;;;;;5.22;3.28;;;18.40;99.90;;;;;;4592159;19;20054;-73
2023/12/16 06:24:20;;;;;;;5.32;3.72;;;18.40;99.90;;;;;;4592277;19;20003;-73
2023/12/16 06:25:54;;;;;;;6.60;3.20;;;18.40;99.90;;;;;;4592051;19;20011;-73
2023/12/16 06:27:31;;;;;;;5.15;3.78;;;18.40;99.90;;;;;;4591257;19;20283;-73
2023/12/16 06:29:05;;;;;;;4.50;3.15;;;18.40;99.90;;;;;;4592196;19;20276;-73
2023/12/16 06:30:41;;;;;;;3.47;2.50;;;18.40;99.90;;;;;;4591860;19;20014;-73
2023/12/16 06:32:16;;;;;;;4.10;2.95;;;18.50;99.90;;;;;;4592204;19;20011;-76
2023/12/16 06:33:51;;;;;;;4.75;2.78;;;18.60;99.90;;;;;;4591853;19;20002;-74
2023/12/16 06:35:25;;;;;;;4.22;2.58;;;18.60;99.90;;;;;;4591829;19;20003;-71
2023/12/16 06:37:02;;;;;;;5.00;2.47;;;18.60;99.90;;;;;;4591157;19;20015;-74
2023/12/16 06:38:36;;;;;;;4.78;3.17;;;18.70;99.90;;;;;;4591979;19;20003;-74
2023/12/16 06:40:10;;;;;;;4.10;2.53;;;18.80;99.90;;;;;;4591717;19;20010;-74
2023/12/16 06:41:45;;;;;;;3.83;2.95;;;18.80;99.90;;;;;;4591746;19;20010;-74
2023/12/16 06:43:20;;;;;;;5.05;3.70;;;18.90;99.90;;;;;;4591937;19;20337;-74
2023/12/16 06:44:54;;;;;;;3.92;2.72;;;18.90;99.90;;;;;;4591636;19;19998;-74
2023/12/16 06:46:30;;;;;;;6.10;3.35;;;18.90;99.90;;;;;;4591323;19;20438;-74
2023/12/16 06:48:04;;;;;;;4.45;2.70;;;19.00;99.90;;;;;;4591539;19;20002;-74
2023/12/16 06:49:39;;;;;;;4.38;2.88;;;19.00;99.90;;;;;;4591561;19;20003;-74
2023/12/16 06:51:15;;;;;;;5.50;3.15;;;19.00;99.90;;;;;;4590869;19;20083;-74
2023/12/16 06:52:50;;;;;;;5.25;3.00;;;19.00;99.90;;;;;;4591586;19;20006;-74
2023/12/16 06:54:24;;;;;;;5.93;3.08;;;19.00;99.90;;;;;;4590158;19;20019;-74
2023/12/16 06:55:59;;;;;;;6.63;2.97;;;19.00;99.90;;;;;;4591537;19;20372;-74
2023/12/16 06:57:34;;;;;;;4.72;3.15;;;19.10;99.90;;;;;;4590136;19;20007;-74
2023/12/16 06:59:08;;;;;;;5.20;3.03;;;19.20;99.90;;;;;;4591468;19;20084;-74
2023/12/16 07:00:44;;;;;;;4.40;2.53;;;19.20;99.90;;;;;;4591486;19;20011;-74
2023/12/16 07:02:19;;;;;;;4.65;3.35;;;19.20;99.90;;;;;;4591369;19;20006;-74
2023/12/16 07:03:53;;;;;;;5.03;2.83;;;19.30;99.90;;;;;;4591290;19;20006;-74
2023/12/16 07:05:28;;;;;;;3.67;2.55;;;19.30;99.90;;;;;;4591822;19;20011;-74
2023/12/16 07:07:02;;;;;;;5.13;3.10;;;19.30;99.90;;;;;;4590710;19;20415;-74
2023/12/16 07:08:37;;;;;;;5.25;2.60;;;19.40;99.90;;;;;;4591297;19;20002;-74
2023/12/16 07:10:12;;;;;;;5.10;2.78;;;19.40;99.90;;;;;;4591283;19;20031;-74
2023/12/16 07:11:47;;;;;;;7.95;3.00;;;19.40;99.90;;;;;;4590201;19;20065;-74
2023/12/16 07:13:21;;;;;;;5.80;3.10;;;19.50;99.90;;;;;;4591452;19;20006;-74
2023/12/16 07:14:56;;;;;;;4.25;2.50;;;19.60;99.90;;;;;;4593654;19;20069;-74
2023/12/16 07:16:30;;;;;;;4.75;2.60;;;19.60;99.90;;;;;;4594925;19;20029;-74
2023/12/16 07:18:04;;;;;;;3.78;2.45;;;19.60;99.90;;;;;;4595826;19;20007;-74
2023/12/16 07:19:40;;;;;;;5.70;2.58;;;19.70;99.90;;;;;;4596016;19;20003;-74
2023/12/16 07:21:15;;;;;;;4.75;2.30;;;19.80;99.90;;;;;;4595659;19;20040;-74
2023/12/16 07:22:50;;;;;;;4.55;2.60;;;19.90;99.90;;;;;;4595591;19;20003;-73
2023/12/16 07:24:25;;;;;;;5.53;2.67;;;19.90;99.90;;;;;;4596113;19;20027;-74
2023/12/16 07:26:05;;;;;;;5.15;2.97;;;20.00;99.90;;;;;;4595622;19;20420;-74
2023/12/16 07:27:39;;;;;;;6.60;3.10;;;20.00;99.90;;;;;;4592856;19;20287;-74
2023/12/16 07:29:14;;;;;;;3.95;2.60;;;20.10;99.90;;;;;;4595232;19;19998;-74
2023/12/16 07:30:48;;;;;;;4.35;2.92;;;20.10;99.90;;;;;;4594978;19;20009;-74
2023/12/16 07:32:23;;;;;;;19.45;16.50;;;20.10;99.90;;;;;;4595448;19;20427;-73
2023/12/16 07:33:58;;;;;;;22.27;17.58;;;18.70;99.90;;;;;;4595518;19;20013;-74
2023/12/16 07:35:33;;;;;;;20.17;16.92;;;17.20;99.90;;;;;;4595379;19;20002;-73
2023/12/16 07:37:07;;;;;;;18.08;15.63;;;16.10;99.90;;;;;;4594274;19;20014;-74
2023/12/16 07:38:43;;;;;;;18.90;15.30;;;15.30;99.90;;;;;;4594047;19;20473;-73
2023/12/16 07:40:18;;;;;;;19.30;14.80;;;14.80;99.90;;;;;;4594958;19;20329;-73
2023/12/16 07:41:52;;;;;;;19.92;14.30;;;14.40;99.90;;;;;;4595514;19;20020;-73
2023/12/16 07:43:28;;;;;;;18.83;14.60;;;14.00;99.90;;;;;;4595322;19;20006;-73
2023/12/16 07:45:02;;;;;;;22.23;17.02;;;13.80;99.90;;;;;;4595184;19;20009;-73
2023/12/16 07:46:36;;;;;;;19.10;14.18;;;13.60;99.90;;;;;;4594360;19;20382;-74
2023/12/16 07:48:11;;;;;;;19.33;15.73;;;13.40;99.90;;;;;;4594898;19;20467;-75
2023/12/16 07:49:46;;;;;;;20.85;14.85;;;13.20;99.90;;;;;;4595406;19;20003;-73
2023/12/16 07:51:24;;;;;;;21.80;15.98;;;13.10;99.90;;;;;;4594749;19;20029;-73
2023/12/16 07:53:00;;;;;;;21.02;15.80;;;13.00;99.90;;;;;;4595088;19;20010;-73
2023/12/16 07:54:34;;;;;;;20.67;15.88;;;12.90;99.90;;;;;;4594976;19;19999;-75
2023/12/16 07:56:10;;;;;;;22.02;17.17;;;12.80;99.90;;;;;;4594976;19;20376;-76
2023/12/16 07:57:46;;;;;;;21.17;16.00;;;12.80;99.90;;;;;;4593575;19;20007;-75
2023/12/16 07:59:21;;;;;;;25.58;17.85;;;12.70;99.90;;;;;;4594597;19;20005;-74
2023/12/16 08:00:55;;;;;;;25.20;18.73;;;12.70;99.90;;;;;;4594899;19;20494;-74
2023/12/16 08:02:33;;;;;;;24.87;17.90;;;12.60;99.90;;;;;;4595244;19;20006;-76
2023/12/16 08:04:08;;;;;;;23.73;17.63;;;12.60;99.90;;;;;;4594867;19;20010;-73
2023/12/16 08:05:44;;;;;;;23.47;17.67;;;12.50;99.90;;;;;;4595082;19;19999;-75
2023/12/16 08:07:21;;;;;;;23.03;17.60;;;12.50;99.90;;;;;;4593565;19;19999;-74
2023/12/16 08:08:56;;;;;;;19.97;16.03;;;12.40;99.90;;;;;;4594723;19;20010;-76
2023/12/16 08:10:30;;;;;;;19.47;15.00;;;12.40;99.90;;;;;;4594481;19;19999;-76
2023/12/16 08:12:06;;;;;;;22.13;11.67;;;12.50;99.90;;;;;;4594735;19;20014;-77
2023/12/16 08:13:40;;;;;;;22.98;11.70;;;12.90;99.90;;;;;;4594788;19;20002;-75
2023/12/16 08:15:14;;;;;;;25.40;11.43;;;13.40;99.90;;;;;;4593268;19;20015;-76
2023/12/16 08:16:50;;;;;;;29.75;12.82;;;13.80;99.90;;;;;;4593387;19;20086;-74
2023/12/16 08:18:25;;;;;;;29.60;14.80;;;14.20;99.90;;;;;;4594488;19;19998;-75
2023/12/16 08:19:59;;;;;;;21.50;12.25;;;14.50;99.90;;;;;;4594379;19;19998;-76
2023/12/16 08:21:35;;;;;;;26.27;14.52;;;14.70;99.90;;;;;;4594399;19;20078;-75
2023/12/16 08:23:10;;;;;;;26.27;13.45;;;15.00;99.90;;;;;;4594660;19;20309;-75
2023/12/16 08:24:45;;;;;;;21.80;14.52;;;15.20;99.90;;;;;;4594197;19;20369;-75
2023/12/16 08:26:21;;;;;;;31.80;13.13;;;15.40;99.90;;;;;;4592031;19;20006;-75
2023/12/16 08:27:55;;;;;;;20.77;11.23;;;15.60;99.90;;;;;;4594338;19;19999;-76